Time;durP1;ratioP1;P1;durP2;ratioP2;P2;SDS_P1;SDS_P2;PMS_P1;PMS_P2;Temp;Humidity;BMP_temperature;BMP_pressure;BME280_temperature;BME280_humidity;BME280_pressure;Samples;Min_cycle;Max_cycle;Signal;HPM_P1;HPM_P2
2021/03/16 00:01:08;;;;;;;1.67;0.85;;;;;;;3.37;63.37;92950.13;4215324;28;20442;-86
2021/03/16 00:03:09;;;;;;;1.02;0.70;;;;;;;3.40;63.37;92949.81;4233921;28;20165;-85
2021/03/16 00:05:11;;;;;;;1.30;0.80;;;;;;;3.51;63.05;92953.88;4233432;28;20055;-86
2021/03/16 00:07:13;;;;;;;1.27;0.90;;;;;;;3.45;63.40;92952.75;4233343;28;20057;-72
2021/03/16 00:09:14;;;;;;;1.38;0.80;;;;;;;3.47;63.39;92948.22;4195952;28;20056;-71
2021/03/16 00:11:15;;;;;;;1.30;0.80;;;;;;;3.53;63.07;92944.16;4229359;28;20333;-72
2021/03/16 00:13:17;;;;;;;2.42;0.98;;;;;;;3.40;63.22;92950.63;4228240;28;20051;-70
2021/03/16 00:15:18;;;;;;;1.70;1.00;;;;;;;3.42;63.52;92951.28;4202943;28;20087;-72
2021/03/16 00:17:19;;;;;;;0.70;0.70;;;;;;;3.31;63.32;92943.00;4210752;28;20049;-72
2021/03/16 00:19:21;;;;;;;1.15;0.68;;;;;;;3.33;63.43;92954.00;4231579;27;20104;-70
2021/03/16 00:21:22;;;;;;;1.35;0.80;;;;;;;3.33;63.19;92941.88;4211026;28;20416;-71
2021/03/16 00:23:24;;;;;;;1.13;0.80;;;;;;;3.38;62.74;92951.78;4229822;28;20040;-85
2021/03/16 00:25:25;;;;;;;1.50;0.90;;;;;;;3.36;63.09;92954.50;4230628;28;20193;-84
2021/03/16 00:27:26;;;;;;;1.17;0.80;;;;;;;3.41;63.05;92954.03;4232126;28;20059;-82
2021/03/16 00:29:27;;;;;;;0.63;0.60;;;;;;;3.46;63.08;92957.78;4232338;28;20134;-86
2021/03/16 00:31:29;;;;;;;1.10;0.80;;;;;;;3.46;62.75;92949.16;4233295;27;20054;-84
2021/03/16 00:33:30;;;;;;;1.20;0.80;;;;;;;3.40;63.03;92960.16;4213658;28;20044;-85
2021/03/16 00:35:31;;;;;;;1.20;0.80;;;;;;;3.42;62.84;92958.22;4232391;27;20059;-71
2021/03/16 00:37:33;;;;;;;1.10;0.70;;;;;;;3.48;62.81;92950.66;4224638;28;20043;-72
2021/03/16 00:39:35;;;;;;;0.90;0.80;;;;;;;3.43;62.82;92952.09;4209733;28;20051;-73
2021/03/16 00:41:36;;;;;;;1.45;0.80;;;;;;;3.43;62.39;92945.13;4229844;28;20077;-72
2021/03/16 00:43:38;;;;;;;0.98;0.60;;;;;;;3.46;62.46;92949.16;4227703;28;20044;-71
2021/03/16 00:45:39;;;;;;;0.57;0.57;;;;;;;3.47;62.70;92945.63;4228419;28;20069;-71
2021/03/16 00:47:40;;;;;;;1.20;0.80;;;;;;;3.51;62.54;92946.94;4230996;28;20102;-83
2021/03/16 00:49:42;;;;;;;1.10;0.80;;;;;;;3.56;62.61;92949.03;4231772;28;20134;-85
2021/03/16 00:51:43;;;;;;;1.20;0.80;;;;;;;3.51;62.45;92936.59;4213413;28;20056;-86
2021/03/16 00:53:44;;;;;;;0.88;0.60;;;;;;;3.46;62.44;92942.25;4233418;27;20048;-86
2021/03/16 00:55:46;;;;;;;1.38;1.00;;;;;;;3.45;62.67;92953.53;4213802;28;20584;-83
2021/03/16 00:57:48;;;;;;;1.38;0.90;;;;;;;3.43;62.63;92949.50;4237535;27;20108;-84
2021/03/16 00:59:49;;;;;;;1.25;0.90;;;;;;;3.47;63.12;92941.25;4222825;28;20044;-85
2021/03/16 01:02:05;;;;;;;0.98;0.55;;;;;;;3.37;63.27;92955.31;4227239;28;20052;-85
2021/03/16 01:04:06;;;;;;;0.90;0.65;;;;;;;3.39;63.86;92945.59;4228070;28;20044;-71
2021/03/16 01:06:08;;;;;;;0.75;0.60;;;;;;;3.36;64.36;92940.75;4229443;28;20055;-72
2021/03/16 01:08:09;;;;;;;0.95;0.70;;;;;;;3.27;64.53;92945.13;4199874;28;20487;-86
2021/03/16 01:10:16;;;;;;;0.73;0.60;;;;;;;3.19;65.47;92943.28;4209405;28;20047;-84
2021/03/16 01:12:17;;;;;;;0.90;0.65;;;;;;;3.06;66.64;92941.16;4222186;28;20047;-84
2021/03/16 01:14:18;;;;;;;0.57;0.55;;;;;;;2.96;67.23;92937.88;4242121;27;20677;-83
2021/03/16 01:16:20;;;;;;;1.20;0.70;;;;;;;3.01;67.82;92943.41;4218061;28;20056;-85
2021/03/16 01:18:21;;;;;;;0.95;0.77;;;;;;;3.07;67.72;92947.13;4198221;28;20052;-84
2021/03/16 01:20:24;;;;;;;1.45;0.70;;;;;;;3.12;67.04;92944.91;4213436;28;20048;-85
2021/03/16 01:22:26;;;;;;;1.02;0.65;;;;;;;2.97;67.76;92951.63;4213273;28;20051;-86
2021/03/16 01:24:27;;;;;;;1.13;0.70;;;;;;;2.98;68.21;92943.72;4212916;28;20132;-85
2021/03/16 01:26:29;;;;;;;1.35;0.80;;;;;;;3.04;67.93;92948.25;4230609;28;20051;-85
2021/03/16 01:28:30;;;;;;;1.00;0.70;;;;;;;3.02;67.90;92939.03;4212821;28;20285;-83
2021/03/16 01:30:32;;;;;;;1.50;0.70;;;;;;;3.01;67.72;92930.47;4211321;28;20127;-71
2021/03/16 01:32:33;;;;;;;1.17;0.80;;;;;;;3.02;67.66;92928.69;4221354;28;20048;-71
2021/03/16 01:34:35;;;;;;;0.98;0.70;;;;;;;3.03;67.82;92931.13;4225658;27;20235;-70
2021/03/16 01:36:36;;;;;;;1.20;0.70;;;;;;;2.97;68.07;92928.34;4234625;27;20066;-70
2021/03/16 01:38:37;;;;;;;0.90;0.60;;;;;;;3.01;68.21;92932.22;4210365;28;20054;-83
2021/03/16 01:40:40;;;;;;;3.40;0.70;;;;;;;3.04;67.90;92926.75;4230758;28;20491;-85
2021/03/16 01:42:42;;;;;;;1.25;0.82;;;;;;;3.10;67.98;92920.13;4223944;28;20056;-84
2021/03/16 01:44:46;;;;;;;0.95;0.60;;;;;;;3.04;68.10;92922.41;4218914;28;20134;-83
2021/03/16 01:46:47;;;;;;;0.80;0.60;;;;;;;3.04;68.34;92913.81;4210939;28;20055;-84
2021/03/16 01:48:49;;;;;;;0.95;0.75;;;;;;;3.01;68.14;92922.72;4228820;28;20058;-85
2021/03/16 01:50:51;;;;;;;2.80;0.90;;;;;;;3.01;68.40;92927.91;4212188;28;20135;-84
2021/03/16 01:52:53;;;;;;;2.38;1.20;;;;;;;2.93;68.96;92917.50;4230527;28;20043;-85
2021/03/16 01:54:55;;;;;;;1.00;0.60;;;;;;;2.97;68.60;92924.00;4230138;28;20061;-84
2021/03/16 01:56:59;;;;;;;1.05;0.80;;;;;;;2.88;69.37;92930.09;4205025;28;20052;-84
2021/03/16 01:59:00;;;;;;;1.00;0.60;;;;;;;2.74;69.83;92936.66;4211357;28;20044;-84
2021/03/16 02:01:01;;;;;;;1.00;0.60;;;;;;;2.82;69.67;92918.59;4242087;28;20066;-82
2021/03/16 02:03:05;;;;;;;1.10;0.70;;;;;;;2.78;69.89;92927.63;4235567;28;20047;-83
2021/03/16 02:05:09;;;;;;;1.45;0.65;;;;;;;2.82;70.21;92915.22;4229739;28;20048;-70
2021/03/16 02:07:15;;;;;;;1.20;0.70;;;;;;;2.80;70.04;92917.94;4218954;28;20058;-70
2021/03/16 02:09:31;;;;;;;1.95;0.70;;;;;;;2.77;70.40;92918.25;4220518;28;20453;-70
2021/03/16 02:11:45;;;;;;;2.40;0.88;;;;;;;2.86;70.14;92917.34;4212471;28;20470;-71
2021/03/16 02:13:59;;;;;;;1.35;0.70;;;;;;;2.84;70.50;92921.03;4210081;28;20070;-69
2021/03/16 02:16:06;;;;;;;1.08;0.80;;;;;;;2.85;69.77;92920.88;4209412;28;20066;-70
2021/03/16 02:18:13;;;;;;;1.70;0.80;;;;;;;2.83;70.04;92924.59;4224237;28;20098;-71
2021/03/16 02:20:30;;;;;;;1.95;0.60;;;;;;;2.79;69.76;92916.31;4214487;28;20434;-69
2021/03/16 02:22:32;;;;;;;0.93;0.60;;;;;;;2.80;69.70;92923.13;4202313;28;20052;-84
2021/03/16 02:25:02;;;;;;;1.45;0.80;;;;;;;2.65;70.71;92912.56;4193284;28;20044;-86
2021/03/16 02:27:09;;;;;;;0.70;0.50;;;;;;;2.61;70.93;92918.19;4197240;28;20048;-84
2021/03/16 02:29:11;;;;;;;1.08;0.65;;;;;;;2.67;70.03;92935.69;4221527;28;20048;-84
2021/03/16 02:31:50;;;;;;;1.27;0.70;;;;;;;2.61;70.77;92921.59;4213395;28;20048;-82
2021/03/16 02:33:53;;;;;;;1.15;0.80;;;;;;;2.63;70.80;92909.31;4208192;28;20040;-84
2021/03/16 02:35:58;;;;;;;1.05;0.70;;;;;;;2.62;70.58;92904.28;4210617;28;20044;-85
2021/03/16 02:38:00;;;;;;;1.08;0.77;;;;;;;2.64;70.70;92917.88;4210980;28;20438;-83
2021/03/16 02:40:03;;;;;;;1.23;0.73;;;;;;;2.60;70.54;92925.16;4215856;28;20071;-81
2021/03/16 02:42:05;;;;;;;1.25;0.70;;;;;;;2.65;70.68;92919.50;4218390;28;20056;-84
2021/03/16 02:44:07;;;;;;;1.33;0.68;;;;;;;2.71;69.51;92923.22;4214765;28;20475;-85
2021/03/16 02:46:08;;;;;;;1.00;0.70;;;;;;;2.78;69.56;92922.47;4231961;28;20070;-83
2021/03/16 02:48:10;;;;;;;1.77;0.80;;;;;;;2.73;69.47;92923.88;4221088;28;20397;-84
2021/03/16 02:50:13;;;;;;;4.40;0.95;;;;;;;2.73;69.98;92923.88;4217576;28;20048;-83
2021/03/16 02:52:28;;;;;;;0.80;0.63;;;;;;;2.72;69.46;92919.69;4217137;28;20412;-83
2021/03/16 02:54:30;;;;;;;1.88;0.90;;;;;;;2.71;69.57;92929.22;4211930;28;20052;-85
2021/03/16 02:56:43;;;;;;;2.15;1.05;;;;;;;2.68;69.39;92929.53;4204029;28;20139;-86
2021/03/16 02:58:46;;;;;;;2.63;0.90;;;;;;;2.69;69.71;92930.34;4215648;28;20463;-85
2021/03/16 03:00:48;;;;;;;1.85;1.10;;;;;;;2.70;69.63;92925.00;4217207;28;20112;-83
2021/03/16 03:02:50;;;;;;;1.97;0.97;;;;;;;2.77;68.68;92935.53;4216117;28;20300;-84
2021/03/16 03:04:53;;;;;;;1.55;0.90;;;;;;;2.77;67.69;92918.25;4215404;28;20055;-84
2021/03/16 03:06:55;;;;;;;1.63;0.80;;;;;;;2.77;68.06;92928.59;4218220;28;20556;-83
2021/03/16 03:08:57;;;;;;;1.92;0.90;;;;;;;2.75;67.93;92930.53;4200092;28;20375;-84
2021/03/16 03:10:58;;;;;;;1.02;0.70;;;;;;;2.75;68.10;92938.28;4219846;28;20102;-82
2021/03/16 03:12:59;;;;;;;1.48;0.90;;;;;;;2.79;67.95;92929.25;4219062;28;20052;-81
2021/03/16 03:15:01;;;;;;;1.45;0.80;;;;;;;2.82;67.36;92928.16;4221908;28;20059;-83
2021/03/16 03:17:03;;;;;;;1.50;0.90;;;;;;;2.79;67.68;92937.00;4230629;28;20108;-84
2021/03/16 03:19:05;;;;;;;1.08;0.63;;;;;;;2.78;67.61;92939.75;4229238;28;20107;-84
2021/03/16 03:21:13;;;;;;;1.90;0.70;;;;;;;2.78;68.13;92940.56;4224825;28;20062;-83
2021/03/16 03:23:33;;;;;;;1.08;0.70;;;;;;;2.77;68.92;92948.47;4226073;28;20502;-84
2021/03/16 03:25:37;;;;;;;1.63;0.90;;;;;;;2.73;69.36;92939.41;4210584;28;20036;-83
2021/03/16 03:27:40;;;;;;;4.13;0.90;;;;;;;2.74;69.75;92939.25;4220540;28;20048;-84
2021/03/16 03:29:44;;;;;;;0.88;0.60;;;;;;;2.65;70.13;92951.34;4215614;28;20054;-84
2021/03/16 03:31:47;;;;;;;1.08;0.73;;;;;;;2.64;70.40;92939.34;4214892;28;20064;-84
2021/03/16 03:33:49;;;;;;;1.60;0.82;;;;;;;2.58;70.67;92954.69;4214236;28;20098;-84
2021/03/16 03:35:51;;;;;;;2.63;0.70;;;;;;;2.41;70.87;92980.44;4216340;28;20522;-84
2021/03/16 03:37:53;;;;;;;1.30;0.70;;;;;;;2.38;71.41;92954.09;4215323;28;20048;-84
2021/03/16 03:39:55;;;;;;;1.98;0.70;;;;;;;2.35;72.30;92952.63;4214354;28;20051;-81
2021/03/16 03:41:56;;;;;;;1.25;0.77;;;;;;;2.33;72.86;92956.34;4232403;28;20051;-83
2021/03/16 03:43:58;;;;;;;1.60;0.80;;;;;;;2.33;72.88;92967.47;4215204;28;20048;-86
2021/03/16 03:46:00;;;;;;;1.40;0.70;;;;;;;2.28;73.25;92971.47;4215719;28;20445;-85
2021/03/16 03:48:05;;;;;;;1.27;0.70;;;;;;;2.32;73.37;92955.50;4233670;28;20071;-85
2021/03/16 03:50:07;;;;;;;1.42;0.65;;;;;;;2.34;73.67;92971.66;4235512;28;20070;-84
2021/03/16 03:52:12;;;;;;;0.95;0.70;;;;;;;2.34;73.82;92958.75;4239341;28;20103;-81
2021/03/16 03:54:14;;;;;;;1.52;0.80;;;;;;;2.27;73.55;92952.56;4223448;28;20070;-82
2021/03/16 03:56:16;;;;;;;0.90;0.60;;;;;;;2.20;73.49;92957.53;4225673;28;20047;-85
2021/03/16 03:58:18;;;;;;;1.20;0.80;;;;;;;2.21;74.43;92971.25;4214950;28;20056;-84
2021/03/16 04:00:21;;;;;;;0.88;0.60;;;;;;;2.14;74.99;92958.13;4224770;28;20140;-85
2021/03/16 04:02:22;;;;;;;0.77;0.60;;;;;;;2.05;74.20;92965.00;4222352;28;20048;-84
2021/03/16 04:04:28;;;;;;;1.65;0.70;;;;;;;2.07;74.04;92964.06;4229565;28;20049;-85
2021/03/16 04:06:29;;;;;;;1.40;0.80;;;;;;;2.09;74.10;92982.78;4200636;28;20044;-85
2021/03/16 04:08:31;;;;;;;1.05;0.65;;;;;;;2.08;74.73;92960.50;4215549;28;20040;-83
2021/03/16 04:10:35;;;;;;;2.55;0.73;;;;;;;2.12;74.41;92972.16;4223010;28;20046;-86
2021/03/16 04:12:38;;;;;;;1.10;0.80;;;;;;;2.08;73.69;92973.44;4219159;28;20050;-84
2021/03/16 04:14:39;;;;;;;1.10;0.70;;;;;;;2.10;73.90;92971.50;4213632;28;20070;-82
2021/03/16 04:16:42;;;;;;;1.70;0.90;;;;;;;2.10;73.64;92969.72;4215234;28;20573;-87
2021/03/16 04:18:44;;;;;;;1.67;0.80;;;;;;;2.16;73.53;92958.78;4217819;28;20135;-84
2021/03/16 04:20:45;;;;;;;1.23;0.75;;;;;;;2.03;73.94;92987.59;4217466;28;20094;-85
2021/03/16 04:22:47;;;;;;;0.90;0.75;;;;;;;2.08;74.22;92969.06;4224925;28;20054;-83
2021/03/16 04:24:50;;;;;;;4.03;1.00;;;;;;;2.03;74.13;92974.69;4224587;28;20510;-83
2021/03/16 04:26:51;;;;;;;2.45;0.90;;;;;;;2.06;74.28;92976.16;4202706;28;20073;-84
2021/03/16 04:28:52;;;;;;;1.45;0.90;;;;;;;2.05;73.96;92975.34;4216519;28;20540;-85
2021/03/16 04:30:54;;;;;;;1.10;0.80;;;;;;;2.05;73.30;92985.69;4217401;28;20048;-86
2021/03/16 04:32:56;;;;;;;1.58;0.80;;;;;;;2.10;73.16;92974.09;4223921;28;20121;-83
2021/03/16 04:34:58;;;;;;;1.48;1.00;;;;;;;2.11;73.52;92983.44;4223544;28;20480;-84
2021/03/16 04:36:59;;;;;;;1.15;0.80;;;;;;;2.14;72.60;92988.34;4214875;28;20105;-85
2021/03/16 04:39:00;;;;;;;1.80;0.82;;;;;;;2.17;72.12;92988.84;4213475;28;20276;-84
2021/03/16 04:41:02;;;;;;;1.85;1.08;;;;;;;2.25;72.70;92977.75;4212148;28;20048;-84
2021/03/16 04:43:06;;;;;;;1.20;0.73;;;;;;;2.22;72.27;92985.81;4212970;28;20051;-83
2021/03/16 04:45:08;;;;;;;1.00;0.90;;;;;;;2.25;71.91;92990.66;4214505;28;20059;-87
2021/03/16 04:47:09;;;;;;;1.08;0.70;;;;;;;2.10;72.17;92984.41;4214771;28;20499;-71
2021/03/16 04:49:11;;;;;;;0.75;0.60;;;;;;;2.20;72.46;92983.38;4223788;28;20059;-72
2021/03/16 04:51:12;;;;;;;1.23;0.70;;;;;;;2.19;72.60;92993.84;4211801;28;20453;-71
2021/03/16 04:53:13;;;;;;;1.80;1.00;;;;;;;2.18;73.06;92992.25;4211972;28;20109;-72
2021/03/16 04:55:14;;;;;;;1.70;0.95;;;;;;;2.17;73.48;92993.19;4208925;28;20105;-72
2021/03/16 04:57:16;;;;;;;1.40;1.02;;;;;;;2.11;74.22;92993.78;4211800;28;20105;-72
2021/03/16 04:59:17;;;;;;;1.50;0.90;;;;;;;2.12;74.36;93001.38;4211843;28;20056;-71
2021/03/16 05:01:19;;;;;;;1.30;0.90;;;;;;;2.14;74.59;93003.84;4209448;28;20486;-72
2021/03/16 05:03:22;;;;;;;1.35;0.90;;;;;;;2.10;74.36;93005.09;4211666;28;20036;-73
2021/03/16 05:05:23;;;;;;;1.80;0.90;;;;;;;2.03;75.08;93015.22;4210911;28;20411;-72
2021/03/16 05:07:25;;;;;;;1.60;1.00;;;;;;;2.09;74.45;93018.94;4211770;28;20056;-71
2021/03/16 05:09:26;;;;;;;1.85;0.95;;;;;;;2.08;75.37;93009.59;4213799;28;20052;-85
2021/03/16 05:11:27;;;;;;;2.00;1.10;;;;;;;1.87;76.32;93000.38;4216759;28;20047;-84
2021/03/16 05:13:29;;;;;;;2.35;1.35;;;;;;;1.74;76.34;93003.34;4223467;28;20040;-84
2021/03/16 05:15:30;;;;;;;5.90;1.00;;;;;;;1.70;77.47;93021.84;4234151;28;20047;-85
2021/03/16 05:17:31;;;;;;;1.88;1.17;;;;;;;1.84;77.55;93018.75;4230829;28;20056;-71
2021/03/16 05:19:32;;;;;;;1.40;1.10;;;;;;;1.72;77.79;93019.91;4228642;28;20109;-70
2021/03/16 05:21:34;;;;;;;1.60;1.02;;;;;;;1.52;78.35;93022.63;4226339;27;20054;-71
2021/03/16 05:23:35;;;;;;;1.65;1.13;;;;;;;1.56;78.47;93016.22;4227330;28;20043;-71
2021/03/16 05:25:36;;;;;;;2.10;1.10;;;;;;;1.57;78.81;93027.34;4210151;28;20059;-70
2021/03/16 05:27:37;;;;;;;2.08;1.30;;;;;;;1.75;78.63;93019.66;4231858;28;20051;-85
2021/03/16 05:29:39;;;;;;;1.83;1.10;;;;;;;1.54;79.10;93033.63;4197814;28;20052;-85
2021/03/16 05:31:40;;;;;;;1.60;1.23;;;;;;;1.62;79.34;93020.81;4232773;28;20055;-84
2021/03/16 05:33:41;;;;;;;2.00;1.20;;;;;;;1.52;79.59;93014.91;4232398;28;20044;-83
2021/03/16 05:35:43;;;;;;;2.03;1.13;;;;;;;1.52;78.89;93035.53;4214163;28;20059;-85
2021/03/16 05:37:44;;;;;;;1.85;1.00;;;;;;;1.51;79.11;93043.44;4214607;28;20055;-85
2021/03/16 05:39:45;;;;;;;1.40;1.00;;;;;;;1.50;79.53;93026.31;4228432;28;20043;-85
2021/03/16 05:41:47;;;;;;;1.55;1.00;;;;;;;1.58;79.70;93021.25;4207210;28;20055;-71
2021/03/16 05:43:48;;;;;;;2.80;1.10;;;;;;;1.64;78.98;93020.66;4209139;28;20104;-71
2021/03/16 05:45:49;;;;;;;1.60;1.23;;;;;;;1.58;79.86;93040.13;4227189;28;20048;-70
2021/03/16 05:47:51;;;;;;;1.77;1.10;;;;;;;1.59;78.86;93028.03;4210435;28;20044;-70
2021/03/16 05:49:56;;;;;;;1.98;1.10;;;;;;;1.64;78.79;93038.75;4193074;28;20080;-71
2021/03/16 05:51:58;;;;;;;1.80;1.33;;;;;;;1.66;79.42;93028.25;4228760;28;20055;-71
2021/03/16 05:53:59;;;;;;;2.38;1.30;;;;;;;1.70;78.75;93048.50;4225411;28;20093;-73
2021/03/16 05:56:01;;;;;;;2.45;1.27;;;;;;;1.66;78.29;93043.72;4226958;28;20676;-70
2021/03/16 05:58:02;;;;;;;2.05;1.42;;;;;;;1.56;79.05;93049.78;4226992;28;20126;-72
2021/03/16 06:00:05;;;;;;;2.35;1.30;;;;;;;1.65;78.48;93042.94;4228926;28;20081;-71
2021/03/16 06:02:06;;;;;;;1.92;1.30;;;;;;;1.73;77.90;93042.22;4225755;28;20108;-72
2021/03/16 06:04:08;;;;;;;2.47;1.30;;;;;;;1.69;78.12;93033.13;4209726;28;20052;-70
2021/03/16 06:06:09;;;;;;;1.75;1.10;;;;;;;1.85;76.77;93064.28;4226618;28;20055;-71
2021/03/16 06:08:10;;;;;;;1.90;1.20;;;;;;;1.91;76.39;93058.50;4227600;28;20051;-71
2021/03/16 06:10:15;;;;;;;1.77;1.10;;;;;;;1.81;76.07;93050.03;4225957;28;20491;-71
2021/03/16 06:12:27;;;;;;;2.50;1.40;;;;;;;1.84;75.81;93054.91;4208374;28;20052;-71
2021/03/16 06:14:30;;;;;;;3.40;1.50;;;;;;;1.92;75.61;93080.81;4227725;28;20146;-72
2021/03/16 06:16:34;;;;;;;2.28;1.23;;;;;;;1.82;76.20;93067.94;4241508;27;20147;-71
2021/03/16 06:18:40;;;;;;;2.08;1.15;;;;;;;1.85;75.60;93056.53;4226311;28;20051;-72
2021/03/16 06:21:00;;;;;;;2.25;1.38;;;;;;;1.84;74.99;93067.81;4202140;28;20048;-72
2021/03/16 06:23:06;;;;;;;2.03;1.58;;;;;;;1.92;74.87;93067.91;4237644;27;20055;-74
2021/03/16 06:25:08;;;;;;;2.17;1.30;;;;;;;1.89;74.88;93067.38;4213328;28;20048;-72
2021/03/16 06:27:23;;;;;;;2.95;1.40;;;;;;;1.89;74.58;93065.59;4236484;28;20044;-85
2021/03/16 06:29:24;;;;;;;2.55;1.38;;;;;;;1.95;74.45;93074.53;4227273;28;20101;-87
2021/03/16 06:31:26;;;;;;;4.53;1.80;;;;;;;1.91;75.67;93079.16;4231613;28;20048;-87
2021/03/16 06:33:29;;;;;;;2.10;1.50;;;;;;;1.97;75.05;93085.53;4227215;28;20103;-88
2021/03/16 06:35:31;;;;;;;2.53;1.70;;;;;;;2.02;75.15;93080.72;4216212;28;20483;-86
2021/03/16 06:37:34;;;;;;;2.28;1.63;;;;;;;2.02;75.17;93084.13;4235968;28;20047;-85
2021/03/16 06:39:42;;;;;;;2.40;1.35;;;;;;;1.87;75.64;93095.09;4216724;28;20574;-87
2021/03/16 06:41:43;;;;;;;2.55;1.55;;;;;;;1.90;75.61;93093.06;4228158;28;20066;-87
2021/03/16 06:44:00;;;;;;;2.40;1.50;;;;;;;1.79;75.87;93096.66;4253157;27;20061;-86
2021/03/16 06:46:02;;;;;;;4.65;1.80;;;;;;;1.81;76.50;93088.78;4221896;28;20062;-85
2021/03/16 06:48:14;;;;;;;2.50;1.65;;;;;;;1.78;76.24;93107.91;4216724;28;20126;-84
2021/03/16 06:50:27;;;;;;;2.28;1.60;;;;;;;1.88;76.13;93100.13;4213418;28;20044;-86
2021/03/16 06:52:28;;;;;;;2.13;1.52;;;;;;;1.81;75.82;93102.50;4198378;28;20053;-89
2021/03/16 06:54:29;;;;;;;2.35;1.70;;;;;;;1.84;75.77;93116.88;4214884;28;20048;-84
2021/03/16 06:56:31;;;;;;;2.40;1.60;;;;;;;1.88;75.84;93100.13;4231562;28;20126;-88
2021/03/16 06:58:35;;;;;;;2.58;1.50;;;;;;;1.84;75.15;93111.72;4224508;28;20044;-88
2021/03/16 07:00:36;;;;;;;;;;;;;;;1.78;76.40;93107.91;4226634;28;20047;-86
2021/03/16 07:02:37;;;;;;;2.78;1.75;;;;;;;1.83;76.11;93121.22;4241755;28;19908;-85
2021/03/16 07:04:43;;;;;;;4.00;1.70;;;;;;;1.82;75.65;93113.63;4224058;28;20141;-86
2021/03/16 07:06:45;;;;;;;2.90;1.75;;;;;;;1.83;75.59;93126.41;4229725;28;20055;-88
2021/03/16 07:08:50;;;;;;;2.88;1.70;;;;;;;1.71;74.96;93127.53;4206386;28;20412;-87
2021/03/16 07:10:51;;;;;;;3.55;2.15;;;;;;;1.72;75.67;93160.16;4231619;28;20139;-85
2021/03/16 07:12:53;;;;;;;3.35;2.03;;;;;;;1.74;74.42;93139.34;4233041;28;20055;-86
2021/03/16 07:14:55;;;;;;;3.58;2.10;;;;;;;1.73;74.40;93132.56;4228166;28;20047;-87
2021/03/16 07:17:01;;;;;;;4.40;2.30;;;;;;;1.79;74.68;93139.75;4213905;28;20048;-87
2021/03/16 07:19:04;;;;;;;6.20;2.47;;;;;;;1.78;74.69;93138.09;4214362;28;20140;-89
2021/03/16 07:21:11;;;;;;;3.17;2.25;;;;;;;1.76;73.62;93152.91;4232860;28;20062;-87
2021/03/16 07:23:14;;;;;;;4.40;2.28;;;;;;;1.82;74.35;93142.03;4184278;28;20057;-87
2021/03/16 07:25:16;;;;;;;3.80;2.80;;;;;;;1.90;74.52;93129.22;4199407;28;20128;-84
2021/03/16 07:27:18;;;;;;;3.80;2.70;;;;;;;1.95;73.43;93137.31;4235969;28;20082;-85
2021/03/16 07:29:20;;;;;;;4.40;2.63;;;;;;;1.97;73.37;93144.94;4217774;28;20048;-87
2021/03/16 07:31:34;;;;;;;5.90;4.15;;;;;;;1.99;73.43;93133.50;4204723;28;20048;-86
2021/03/16 07:33:37;;;;;;;6.13;3.65;;;;;;;2.01;73.23;93139.31;4220045;28;20531;-85
2021/03/16 07:35:39;;;;;;;4.30;3.00;;;;;;;1.99;72.97;93153.34;4228781;28;20051;-86
2021/03/16 07:37:40;;;;;;;4.65;3.00;;;;;;;2.00;72.74;93157.53;4200455;28;20044;-86
2021/03/16 07:39:42;;;;;;;4.00;2.80;;;;;;;1.98;72.47;93162.03;4200110;28;20049;-88
2021/03/16 07:41:44;;;;;;;4.28;3.38;;;;;;;1.92;73.64;93160.06;4217390;28;20058;-85
2021/03/16 07:43:45;;;;;;;4.82;3.40;;;;;;;1.91;71.85;93200.53;4235892;28;20047;-83
2021/03/16 07:45:47;;;;;;;5.50;3.95;;;;;;;1.96;72.35;93171.72;4220222;28;20044;-87
2021/03/16 07:47:48;;;;;;;5.40;3.75;;;;;;;1.89;72.65;93166.31;4206617;28;20048;-84
2021/03/16 07:50:00;;;;;;;5.38;3.42;;;;;;;1.88;72.82;93176.78;4238321;28;20122;-86
2021/03/16 07:52:03;;;;;;;5.53;3.65;;;;;;;1.93;73.42;93166.84;4217153;28;20060;-85
2021/03/16 07:54:05;;;;;;;5.63;4.10;;;;;;;1.99;73.69;93168.84;4215823;28;20479;-86
2021/03/16 07:56:13;;;;;;;6.15;3.97;;;;;;;1.94;73.48;93169.28;4248924;27;20057;-84
2021/03/16 07:58:16;;;;;;;5.03;3.60;;;;;;;1.92;72.46;93172.97;4230738;28;20044;-72
2021/03/16 08:00:31;;;;;;;7.22;3.80;;;;;;;1.94;72.94;93169.28;4214235;28;20060;-72
2021/03/16 08:02:33;;;;;;;5.57;4.03;;;;;;;1.93;73.10;93175.38;4229110;28;20071;-72
2021/03/16 08:04:39;;;;;;;4.83;3.53;;;;;;;1.87;71.29;93165.63;4228910;28;20466;-71
2021/03/16 08:06:42;;;;;;;4.65;3.67;;;;;;;1.90;71.78;93177.47;4230042;28;20139;-71
2021/03/16 08:08:43;;;;;;;4.68;3.70;;;;;;;1.93;71.99;93169.41;4227310;28;20444;-72
2021/03/16 08:10:45;;;;;;;5.55;4.25;;;;;;;1.94;71.53;93179.63;4229732;28;20384;-71
2021/03/16 08:12:58;;;;;;;7.00;4.60;;;;;;;2.03;71.83;93177.94;4194359;28;20067;-73
2021/03/16 08:15:10;;;;;;;4.95;3.83;;;;;;;1.98;72.56;93187.88;4182125;28;20048;-72
2021/03/16 08:17:11;;;;;;;6.38;4.43;;;;;;;1.97;72.76;93192.22;4196314;28;20423;-72
2021/03/16 08:19:14;;;;;;;4.22;3.50;;;;;;;1.99;72.90;93181.75;4195817;28;20450;-85
2021/03/16 08:21:19;;;;;;;5.72;3.70;;;;;;;2.03;72.77;93180.50;4211282;28;20044;-83
2021/03/16 08:23:31;;;;;;;9.93;4.45;;;;;;;1.95;72.75;93186.38;4190185;28;20497;-87
2021/03/16 08:25:32;;;;;;;5.85;4.20;;;;;;;2.01;72.55;93183.22;4187257;28;20060;-86
2021/03/16 08:27:39;;;;;;;5.82;4.07;;;;;;;1.94;72.51;93183.97;4195615;28;20138;-85
2021/03/16 08:29:47;;;;;;;5.35;4.28;;;;;;;2.05;71.90;93207.00;4205512;28;20074;-85
2021/03/16 08:31:51;;;;;;;5.53;3.65;;;;;;;2.07;71.34;93165.56;4206202;28;20122;-82
2021/03/16 08:33:53;;;;;;;6.55;3.78;;;;;;;2.04;70.80;93190.72;4211559;28;20098;-83
2021/03/16 08:35:56;;;;;;;4.65;3.45;;;;;;;2.07;71.07;93192.19;4212167;28;20048;-85
2021/03/16 08:37:58;;;;;;;6.18;4.20;;;;;;;2.11;71.10;93196.09;4211531;28;20048;-84
2021/03/16 08:40:00;;;;;;;4.15;3.60;;;;;;;2.04;69.48;93188.13;4205181;28;20087;-85
2021/03/16 08:42:04;;;;;;;4.43;3.47;;;;;;;2.03;70.69;93199.41;4201126;28;20064;-85
2021/03/16 08:44:07;;;;;;;5.30;3.47;;;;;;;1.95;70.99;93199.31;4202859;28;20059;-86
2021/03/16 08:46:10;;;;;;;5.43;3.75;;;;;;;2.07;71.21;93189.59;4198432;28;20480;-72
2021/03/16 08:48:12;;;;;;;5.55;3.75;;;;;;;2.07;70.67;93199.13;4196050;28;20051;-72
2021/03/16 08:50:13;;;;;;;5.30;3.70;;;;;;;2.01;70.29;93196.16;4194531;28;20621;-72
2021/03/16 08:52:26;;;;;;;5.25;3.80;;;;;;;2.06;70.57;93193.13;4195939;28;20044;-71
2021/03/16 08:54:28;;;;;;;4.35;3.58;;;;;;;2.10;71.28;93188.50;4191024;28;20052;-72
2021/03/16 08:56:30;;;;;;;4.65;3.47;;;;;;;2.01;70.89;93205.69;4192964;28;20193;-72
2021/03/16 08:58:31;;;;;;;4.40;3.15;;;;;;;2.09;70.21;93200.59;4195727;28;20044;-71
2021/03/16 09:00:33;;;;;;;5.78;3.88;;;;;;;2.03;70.63;93186.47;4176279;28;20080;-72
2021/03/16 09:02:36;;;;;;;4.72;3.50;;;;;;;2.05;70.40;93196.69;4195840;28;20063;-73
2021/03/16 09:04:38;;;;;;;;;;;;;;;2.07;69.67;93188.78;4192973;28;20110;-74
2021/03/16 09:06:39;;;;;;;4.85;3.90;;;;;;;2.02;69.39;93195.22;4194776;28;19927;-73
2021/03/16 09:08:42;;;;;;;5.28;4.07;;;;;;;2.03;70.04;93199.41;4176431;28;20072;-72
2021/03/16 09:10:43;;;;;;;5.25;4.00;;;;;;;2.10;70.06;93191.88;4176909;28;20053;-73
2021/03/16 09:12:47;;;;;;;4.82;3.88;;;;;;;2.08;68.63;93213.66;4195055;28;20500;-71
2021/03/16 09:14:48;;;;;;;;;;;;;;;1.99;70.15;93190.31;4208356;28;20085;-73
2021/03/16 09:16:52;;;;;;;4.35;3.45;;;;;;;2.03;69.04;93212.31;4211717;28;19974;-71
2021/03/16 09:18:54;;;;;;;6.10;3.50;;;;;;;2.04;68.86;93238.94;4202746;28;20455;-73
2021/03/16 09:20:55;;;;;;;4.45;3.50;;;;;;;2.00;68.52;93219.53;4220115;28;20058;-73
2021/03/16 09:22:59;;;;;;;6.47;3.60;;;;;;;1.98;68.68;93190.44;4210700;28;20408;-72
2021/03/16 09:25:00;;;;;;;5.50;3.80;;;;;;;2.15;69.11;93209.53;4216771;28;20131;-87
2021/03/16 09:27:04;;;;;;;4.60;3.20;;;;;;;2.06;67.17;93224.13;4215020;28;20048;-88
2021/03/16 09:29:05;;;;;;;5.55;3.67;;;;;;;2.16;67.29;93213.75;4222791;28;20043;-86
2021/03/16 09:31:06;;;;;;;4.97;3.75;;;;;;;2.22;67.90;93192.50;4223370;28;20052;-86
2021/03/16 09:33:17;;;;;;;8.77;3.80;;;;;;;2.16;66.90;93206.81;4217753;28;20103;-87
2021/03/16 09:35:19;;;;;;;6.15;4.00;;;;;;;2.31;67.68;93189.03;4223965;28;20040;-85
2021/03/16 09:37:21;;;;;;;4.88;3.60;;;;;;;2.22;67.38;93208.00;4228875;28;20044;-85
2021/03/16 09:39:23;;;;;;;4.25;2.97;;;;;;;2.34;66.90;93243.00;4221289;28;20054;-88
2021/03/16 09:41:26;;;;;;;4.07;3.17;;;;;;;2.23;66.54;93207.84;4220466;28;20432;-85
2021/03/16 09:43:31;;;;;;;4.10;2.92;;;;;;;2.31;67.62;93189.03;4220725;28;20487;-84
2021/03/16 09:45:33;;;;;;;6.05;3.40;;;;;;;2.37;67.87;93206.56;4201947;28;20456;-87
2021/03/16 09:47:34;;;;;;;4.55;3.75;;;;;;;2.32;67.51;93201.00;4218160;28;20558;-88